Baldwin, Kansas
Current Conditions -  °F | °C
As of 2:52 PM on Tuesday 27 Jan 2015 (Local Time) from KLWC Reporting Station
Clear Clear  
Wind Chill: 57°   Ceiling: Unl
Heat Index: 57°   Visibility: 10mi
Dew Point: 32°   Wind: 7mph
Humidity: 39%   Direction: 140°SE
Pressure: 30.09"   Gusts: NA
Location:  38.8017°N, 95.2855°W
Report Text: KLWC 272052Z AUTO 14006KT 10SM CLR 14/00 A3009 RMK AO2 SLP192 T01390000 56026
Loading
Personal Weather Stations






























Interactive Weather Map New forecast layout! Learn more

10-Day Weather Forecast

Advertisements
Track Severe Weather on mobile